Time;durP1;ratioP1;P1;durP2;ratioP2;P2;SDS_P1;SDS_P2;PMS_P1;PMS_P2;Temp;Humidity;BMP_temperature;BMP_pressure;BME280_temperature;BME280_humidity;BME280_pressure;Samples;Min_cycle;Max_cycle;Signal;HPM_P1;HPM_P2
2023/03/19 00:01:50;;;;;;;14.30;4.18;;;11.90;99.90;;;;;;5054706;28;20521;-89
2023/03/19 00:04:16;;;;;;;8.23;4.72;;;11.80;99.90;;;;;;5058959;28;20464;-89
2023/03/19 00:06:42;;;;;;;10.52;4.50;;;11.70;99.90;;;;;;5069626;28;20369;-89
2023/03/19 00:09:08;;;;;;;12.38;4.60;;;11.60;99.90;;;;;;5072543;28;20388;-88
2023/03/19 00:11:33;;;;;;;11.25;4.10;;;11.50;99.90;;;;;;5070527;28;20021;-87
2023/03/19 00:13:59;;;;;;;12.25;4.25;;;11.50;99.90;;;;;;5053785;28;20029;-88
2023/03/19 00:16:25;;;;;;;11.70;3.88;;;11.40;99.90;;;;;;5077946;28;20111;-88
2023/03/19 00:18:50;;;;;;;11.15;4.07;;;11.40;99.90;;;;;;5072719;28;20044;-88
2023/03/19 00:21:16;;;;;;;12.52;3.88;;;11.40;99.90;;;;;;5066656;28;20309;-86
2023/03/19 00:23:41;;;;;;;10.68;3.60;;;11.40;99.90;;;;;;5067601;28;20046;-88
2023/03/19 00:26:07;;;;;;;8.20;3.85;;;11.50;99.90;;;;;;5061628;28;20032;-87
2023/03/19 00:28:34;;;;;;;13.43;4.88;;;11.50;99.90;;;;;;5066236;28;20051;-89
2023/03/19 00:31:15;;;;;;;12.55;3.03;;;11.50;99.90;;;;;;5082169;28;20021;-90
2023/03/19 00:33:41;;;;;;;17.70;3.92;;;11.60;99.90;;;;;;5066176;28;20095;-88
2023/03/19 00:36:08;;;;;;;7.93;3.50;;;11.50;99.90;;;;;;5075412;28;20483;-86
2023/03/19 00:38:34;;;;;;;11.05;3.45;;;11.60;99.90;;;;;;5079544;28;20055;-88
2023/03/19 00:41:00;;;;;;;6.25;3.30;;;11.50;99.90;;;;;;5067837;28;20056;-88
2023/03/19 00:43:26;;;;;;;8.85;3.50;;;11.50;99.90;;;;;;5067891;28;20060;-87
2023/03/19 00:45:53;;;;;;;10.68;3.15;;;11.50;99.90;;;;;;5069626;28;20090;-88
2023/03/19 00:48:19;;;;;;;5.03;3.05;;;11.50;99.90;;;;;;5061505;28;20024;-89
2023/03/19 00:50:44;;;;;;;10.13;3.33;;;11.40;99.90;;;;;;5076885;28;20107;-89
2023/03/19 00:53:10;;;;;;;7.75;3.20;;;11.40;99.90;;;;;;5084217;28;20375;-88
2023/03/19 00:55:36;;;;;;;7.90;3.10;;;11.50;99.90;;;;;;5083211;28;20231;-88
2023/03/19 00:58:01;;;;;;;6.57;3.10;;;11.60;99.90;;;;;;5069457;28;20028;-88
2023/03/19 01:00:27;;;;;;;5.03;3.03;;;11.70;99.90;;;;;;5079593;28;20032;-87
2023/03/19 01:02:53;;;;;;;6.57;2.67;;;11.80;99.90;;;;;;5072304;28;20066;-88
2023/03/19 01:05:18;;;;;;;7.30;3.05;;;11.70;99.90;;;;;;5079008;28;20273;-88
2023/03/19 01:07:44;;;;;;;8.15;2.72;;;11.70;99.90;;;;;;5057044;28;20481;-90
2023/03/19 01:10:10;;;;;;;16.55;3.35;;;11.70;99.90;;;;;;5087626;28;20024;-87
2023/03/19 01:12:36;;;;;;;7.90;3.13;;;11.70;99.90;;;;;;5067993;28;20369;-88
2023/03/19 01:15:04;;;;;;;7.63;2.83;;;11.70;99.90;;;;;;5086072;28;20031;-88
2023/03/19 01:17:29;;;;;;;4.00;2.58;;;11.70;99.90;;;;;;5072360;28;21010;-87
2023/03/19 01:19:55;;;;;;;4.85;2.83;;;11.60;99.90;;;;;;5082159;28;20036;-87
2023/03/19 01:22:21;;;;;;;8.88;2.53;;;11.60;99.90;;;;;;5076660;28;20510;-87
2023/03/19 01:24:48;;;;;;;8.07;2.88;;;11.50;99.90;;;;;;5077853;28;20046;-86
2023/03/19 01:27:16;;;;;;;4.25;2.47;;;11.50;99.90;;;;;;5069067;28;20040;-87
2023/03/19 01:29:42;;;;;;;4.20;2.25;;;11.50;99.90;;;;;;5065928;28;20024;-89
2023/03/19 01:32:07;;;;;;;7.57;3.67;;;11.40;99.90;;;;;;5075270;28;21597;-87
2023/03/19 01:34:33;;;;;;;3.28;2.08;;;11.40;99.90;;;;;;5082900;28;20417;-87
2023/03/19 01:36:59;;;;;;;3.28;2.25;;;11.30;99.90;;;;;;5079458;28;20028;-87
2023/03/19 01:39:25;;;;;;;5.93;2.70;;;11.30;99.90;;;;;;5076108;28;20044;-88
2023/03/19 01:41:50;;;;;;;10.63;2.15;;;11.30;99.90;;;;;;5085226;28;20461;-88
2023/03/19 01:44:28;;;;;;;4.07;2.38;;;11.20;99.90;;;;;;5084371;28;20016;-87
2023/03/19 01:46:55;;;;;;;8.18;2.58;;;11.20;99.90;;;;;;5079078;28;20054;-89
2023/03/19 01:49:23;;;;;;;5.50;2.47;;;11.20;99.90;;;;;;5073085;28;20504;-87
2023/03/19 01:51:49;;;;;;;5.20;2.30;;;11.20;99.90;;;;;;5075283;28;20025;-87
2023/03/19 01:54:19;;;;;;;7.45;2.78;;;11.10;99.90;;;;;;5070347;28;20077;-89
2023/03/19 01:56:47;;;;;;;5.30;2.60;;;11.10;99.90;;;;;;5074154;28;20365;-88
2023/03/19 01:59:29;;;;;;;6.10;2.33;;;11.10;99.90;;;;;;5074625;28;20037;-88
2023/03/19 02:02:03;;;;;;;3.97;2.28;;;11.10;99.90;;;;;;5082813;28;20099;-89
2023/03/19 02:04:31;;;;;;;6.03;2.20;;;11.10;99.90;;;;;;5067579;28;20028;-88
2023/03/19 02:07:00;;;;;;;2.10;1.90;;;11.10;99.90;;;;;;5077499;28;20099;-88
2023/03/19 02:09:28;;;;;;;5.43;2.13;;;11.00;99.90;;;;;;5076668;28;20055;-89
2023/03/19 02:11:54;;;;;;;3.72;2.35;;;11.00;99.90;;;;;;5076126;28;20553;-88
2023/03/19 02:14:20;;;;;;;1.83;1.63;;;11.00;99.90;;;;;;5082212;28;20016;-89
2023/03/19 02:16:45;;;;;;;4.63;2.03;;;11.00;99.90;;;;;;5074054;28;20510;-90
2023/03/19 02:19:17;;;;;;;6.07;2.33;;;11.00;99.90;;;;;;5075236;28;20231;-89
2023/03/19 02:21:43;;;;;;;2.67;2.00;;;11.00;99.90;;;;;;5071867;28;20342;-88
2023/03/19 02:24:16;;;;;;;1.80;1.70;;;11.00;99.90;;;;;;5074123;28;20027;-90
2023/03/19 02:26:43;;;;;;;3.53;1.98;;;11.00;99.90;;;;;;5066808;28;20032;-89
2023/03/19 02:29:09;;;;;;;3.70;2.03;;;10.90;99.90;;;;;;5082772;28;20016;-87
2023/03/19 02:31:35;;;;;;;4.00;1.80;;;10.90;99.90;;;;;;5072049;28;20077;-89
2023/03/19 02:34:27;;;;;;;3.22;1.85;;;10.90;99.90;;;;;;5083469;28;20027;-89
2023/03/19 02:37:16;;;;;;;3.67;1.60;;;10.90;99.90;;;;;;5074567;28;20016;-87
2023/03/19 02:39:58;;;;;;;6.10;2.35;;;10.90;99.90;;;;;;5067065;28;20913;-87
2023/03/19 02:42:26;;;;;;;1.83;1.52;;;10.90;99.90;;;;;;5070514;28;20054;-89
2023/03/19 02:44:52;;;;;;;3.80;1.77;;;10.90;99.90;;;;;;5074329;28;20039;-89
2023/03/19 02:47:18;;;;;;;4.70;1.77;;;10.90;99.90;;;;;;5073242;28;20520;-89
2023/03/19 02:49:43;;;;;;;11.80;2.83;;;10.90;99.90;;;;;;5078332;28;20036;-89
2023/03/19 02:52:09;;;;;;;3.97;2.33;;;10.90;99.90;;;;;;5077746;28;20024;-89
2023/03/19 02:54:35;;;;;;;11.13;2.53;;;10.90;99.90;;;;;;5076816;28;20024;-87
2023/03/19 02:57:00;;;;;;;8.60;2.75;;;11.00;99.90;;;;;;5074204;28;20024;-89
2023/03/19 02:59:26;;;;;;;2.58;1.90;;;11.00;99.90;;;;;;5078132;28;20043;-88
2023/03/19 03:01:52;;;;;;;2.80;1.80;;;11.00;99.90;;;;;;5072643;28;20388;-87
2023/03/19 03:04:18;;;;;;;15.75;2.85;;;11.00;99.90;;;;;;5073499;28;20020;-87
2023/03/19 03:06:44;;;;;;;8.70;2.55;;;11.00;99.90;;;;;;5072837;28;20017;-88
2023/03/19 03:09:11;;;;;;;7.70;3.00;;;11.10;99.90;;;;;;5075826;28;20086;-88
2023/03/19 03:11:37;;;;;;;7.13;2.90;;;11.10;99.90;;;;;;5074034;28;20028;-89
2023/03/19 03:14:03;;;;;;;5.15;2.47;;;11.10;99.90;;;;;;5069664;28;20020;-89
2023/03/19 03:16:29;;;;;;;5.15;2.47;;;11.10;99.90;;;;;;5079089;28;20468;-89
2023/03/19 03:18:55;;;;;;;7.50;3.05;;;11.10;99.90;;;;;;5071180;28;20032;-87
2023/03/19 03:21:22;;;;;;;6.70;2.33;;;11.10;99.90;;;;;;5074417;28;20025;-89
2023/03/19 03:23:47;;;;;;;6.25;2.83;;;11.10;99.90;;;;;;5077516;28;20386;-89
2023/03/19 03:26:13;;;;;;;5.30;2.63;;;11.00;99.90;;;;;;5075894;28;20024;-88
2023/03/19 03:28:40;;;;;;;10.10;2.65;;;11.00;99.90;;;;;;5069891;28;20099;-88
2023/03/19 03:31:05;;;;;;;7.45;2.90;;;11.00;99.90;;;;;;5084374;28;20020;-87
2023/03/19 03:33:31;;;;;;;9.82;2.95;;;10.90;99.90;;;;;;5080795;28;20111;-88
2023/03/19 03:35:58;;;;;;;4.88;2.85;;;10.90;99.90;;;;;;5081482;28;20873;-88
2023/03/19 03:38:23;;;;;;;5.22;2.28;;;10.90;99.90;;;;;;5066741;28;20044;-88
2023/03/19 03:40:51;;;;;;;2.90;2.20;;;10.80;99.90;;;;;;5074212;28;20020;-88
2023/03/19 03:43:19;;;;;;;3.58;2.53;;;10.80;99.90;;;;;;5065812;28;20021;-89
2023/03/19 03:45:46;;;;;;;6.55;2.35;;;10.70;99.90;;;;;;5078999;28;20115;-89
2023/03/19 03:48:12;;;;;;;7.00;3.05;;;10.70;99.90;;;;;;5071491;28;20035;-89
2023/03/19 03:50:38;;;;;;;7.38;2.83;;;10.70;99.90;;;;;;5075548;28;20106;-88
2023/03/19 03:53:04;;;;;;;4.25;2.85;;;10.70;99.90;;;;;;5070604;28;20020;-89
2023/03/19 03:55:30;;;;;;;8.10;2.40;;;10.60;99.90;;;;;;5076175;28;20029;-88
2023/03/19 03:57:56;;;;;;;5.20;2.90;;;10.60;99.90;;;;;;5063739;28;20107;-89
2023/03/19 04:00:23;;;;;;;5.25;2.67;;;10.60;99.90;;;;;;5074681;28;20123;-89
2023/03/19 04:02:49;;;;;;;6.63;2.80;;;10.60;99.90;;;;;;5083540;28;20044;-89
2023/03/19 04:05:16;;;;;;;5.00;3.00;;;10.60;99.90;;;;;;5075416;28;20078;-88
2023/03/19 04:07:42;;;;;;;4.88;2.85;;;10.60;99.90;;;;;;5073538;28;20036;-88
2023/03/19 04:10:10;;;;;;;3.60;2.50;;;10.60;99.90;;;;;;5074267;28;20091;-88
2023/03/19 04:12:38;;;;;;;4.22;2.58;;;10.60;99.90;;;;;;5072430;28;20028;-88
2023/03/19 04:15:05;;;;;;;9.98;3.83;;;10.60;99.90;;;;;;5062562;28;20039;-88
2023/03/19 04:17:31;;;;;;;9.15;4.28;;;10.60;99.90;;;;;;5068144;28;20639;-88
2023/03/19 04:19:56;;;;;;;6.45;3.10;;;10.60;99.90;;;;;;5058629;28;20041;-88
2023/03/19 04:22:22;;;;;;;6.70;4.07;;;10.50;99.90;;;;;;5072450;28;20029;-88
2023/03/19 04:24:50;;;;;;;9.43;3.42;;;10.50;99.90;;;;;;5073184;28;20039;-88
2023/03/19 04:27:39;;;;;;;11.07;4.03;;;10.50;99.90;;;;;;5069852;28;20103;-87
2023/03/19 04:30:05;;;;;;;6.38;3.60;;;10.40;99.90;;;;;;5072381;28;20401;-88
2023/03/19 04:32:32;;;;;;;6.47;3.60;;;10.50;99.90;;;;;;5078691;28;20028;-89
2023/03/19 04:34:58;;;;;;;5.13;3.47;;;10.40;99.90;;;;;;5075164;28;20028;-89
2023/03/19 04:37:24;;;;;;;7.78;3.55;;;10.40;99.90;;;;;;5078630;28;20020;-88
2023/03/19 04:39:50;;;;;;;5.65;3.22;;;10.40;99.90;;;;;;5073571;28;20481;-88
2023/03/19 04:42:15;;;;;;;8.25;3.40;;;10.40;99.90;;;;;;5080705;28;20024;-88
2023/03/19 04:44:41;;;;;;;5.63;2.95;;;10.40;99.90;;;;;;5079785;28;20013;-89
2023/03/19 04:47:09;;;;;;;2.60;2.40;;;10.40;99.90;;;;;;5073352;28;20103;-88
2023/03/19 04:49:35;;;;;;;4.68;2.72;;;10.40;99.90;;;;;;5065860;28;20119;-89
2023/03/19 04:52:01;;;;;;;3.67;2.28;;;10.40;99.90;;;;;;5071565;28;20028;-89
2023/03/19 04:54:27;;;;;;;5.85;2.10;;;10.40;99.90;;;;;;5074145;28;20368;-88
2023/03/19 04:56:53;;;;;;;5.32;2.40;;;10.40;99.90;;;;;;5078137;28;20479;-89
2023/03/19 04:59:18;;;;;;;8.23;2.83;;;10.40;99.90;;;;;;5068908;28;20365;-88
2023/03/19 05:01:44;;;;;;;4.65;2.33;;;10.40;99.90;;;;;;5076661;28;20024;-89
2023/03/19 05:04:12;;;;;;;4.53;1.85;;;10.40;99.90;;;;;;5078696;28;20029;-88
2023/03/19 05:06:38;;;;;;;3.85;2.00;;;10.40;99.90;;;;;;5076356;28;20056;-89
2023/03/19 05:09:05;;;;;;;5.88;2.38;;;10.30;99.90;;;;;;5076702;28;20313;-89
2023/03/19 05:11:32;;;;;;;4.63;2.63;;;10.30;99.90;;;;;;5079779;28;20052;-89
2023/03/19 05:13:58;;;;;;;3.75;2.60;;;10.30;99.90;;;;;;5070213;28;20420;-88
2023/03/19 05:16:24;;;;;;;6.88;3.15;;;10.20;99.90;;;;;;5074550;28;20025;-89
2023/03/19 05:18:49;;;;;;;10.80;3.33;;;10.10;99.90;;;;;;5075699;28;20476;-88
2023/03/19 05:21:19;;;;;;;11.10;3.55;;;10.10;99.90;;;;;;5078476;28;20051;-89
2023/03/19 05:23:44;;;;;;;6.43;2.90;;;10.00;99.90;;;;;;5077836;28;20028;-88
2023/03/19 05:26:10;;;;;;;4.75;3.00;;;10.00;99.90;;;;;;5079172;28;20027;-88
2023/03/19 05:28:36;;;;;;;3.28;2.67;;;10.00;99.90;;;;;;5074965;28;20028;-89
2023/03/19 05:31:03;;;;;;;5.50;2.35;;;10.00;99.90;;;;;;5075937;28;20031;-89
2023/03/19 05:33:29;;;;;;;4.65;2.65;;;10.00;99.90;;;;;;5078576;28;20073;-89
2023/03/19 05:35:54;;;;;;;6.45;3.80;;;10.00;99.90;;;;;;5072854;28;20024;-89
2023/03/19 05:38:20;;;;;;;3.22;2.50;;;10.00;99.90;;;;;;5066875;28;20481;-88
2023/03/19 05:40:46;;;;;;;3.83;2.83;;;10.00;99.90;;;;;;5074044;28;20082;-88
2023/03/19 05:43:19;;;;;;;6.78;2.25;;;10.00;99.90;;;;;;5073220;28;20017;-89
2023/03/19 05:45:55;;;;;;;4.00;2.60;;;10.00;99.90;;;;;;5080962;28;20030;-88
2023/03/19 05:48:22;;;;;;;6.03;2.67;;;10.00;99.90;;;;;;5068468;28;20032;-89
2023/03/19 05:50:47;;;;;;;4.65;2.40;;;10.00;99.90;;;;;;5076282;28;20027;-89
2023/03/19 05:53:13;;;;;;;3.90;2.35;;;10.10;99.90;;;;;;5071050;28;20024;-89
2023/03/19 05:55:39;;;;;;;3.60;2.67;;;10.10;99.90;;;;;;5082208;28;20024;-89
2023/03/19 05:58:06;;;;;;;5.18;2.58;;;10.10;99.90;;;;;;5068848;28;20070;-89
2023/03/19 06:00:32;;;;;;;4.07;2.42;;;10.10;99.90;;;;;;5072069;28;20013;-89
2023/03/19 06:02:58;;;;;;;5.50;3.33;;;10.10;99.90;;;;;;5078076;28;20453;-89
2023/03/19 06:05:24;;;;;;;9.25;3.53;;;10.10;99.90;;;;;;5072105;28;20373;-89
2023/03/19 06:07:50;;;;;;;24.17;4.13;;;10.20;99.90;;;;;;5071495;28;20028;-89
2023/03/19 06:10:19;;;;;;;10.80;3.90;;;10.30;99.90;;;;;;5072961;28;20016;-88
2023/03/19 06:12:45;;;;;;;5.00;2.80;;;10.40;99.90;;;;;;5069723;28;20086;-90
2023/03/19 06:15:11;;;;;;;6.18;3.03;;;10.40;99.90;;;;;;5074515;28;20236;-89
2023/03/19 06:18:08;;;;;;;5.57;3.05;;;10.40;99.90;;;;;;5069101;28;20029;-89
2023/03/19 06:20:33;;;;;;;10.93;4.03;;;10.50;99.90;;;;;;5054507;28;20040;-84
2023/03/19 06:22:59;;;;;;;7.55;3.13;;;10.60;99.90;;;;;;5061369;28;20020;-89
2023/03/19 06:25:25;;;;;;;9.05;3.20;;;10.60;99.90;;;;;;5064209;28;20036;-89
2023/03/19 06:27:50;;;;;;;8.27;3.70;;;10.60;99.90;;;;;;5077328;28;20024;-89
2023/03/19 06:30:16;;;;;;;7.75;4.32;;;10.60;99.90;;;;;;5070298;28;20023;-89
2023/03/19 06:32:43;;;;;;;17.88;4.32;;;10.70;99.90;;;;;;5073865;28;20135;-88
2023/03/19 06:35:11;;;;;;;24.77;4.38;;;10.80;99.90;;;;;;5067358;28;20028;-87
2023/03/19 06:37:37;;;;;;;16.40;4.10;;;10.90;99.90;;;;;;5067054;28;20017;-89
2023/03/19 06:40:03;;;;;;;14.10;4.65;;;11.00;99.90;;;;;;5069281;28;20519;-87
2023/03/19 06:42:29;;;;;;;14.23;5.90;;;11.10;99.90;;;;;;5080206;28;20020;-88
2023/03/19 06:44:55;;;;;;;14.55;5.50;;;11.30;99.90;;;;;;5070121;28;20450;-89
2023/03/19 06:47:21;;;;;;;10.90;4.97;;;11.40;99.90;;;;;;5075053;28;20028;-89
2023/03/19 06:49:47;;;;;;;12.48;5.07;;;11.50;99.90;;;;;;5075177;28;20035;-89
2023/03/19 06:52:14;;;;;;;14.52;6.53;;;11.60;99.90;;;;;;5072050;28;20020;-92
2023/03/19 06:54:42;;;;;;;14.98;5.72;;;11.70;99.90;;;;;;5070183;28;20028;-84
2023/03/19 06:57:08;;;;;;;13.60;5.72;;;11.80;99.90;;;;;;5071638;28;20032;-84
2023/03/19 06:59:33;;;;;;;14.68;4.93;;;11.90;99.90;;;;;;5062633;28;20039;-88
2023/03/19 07:01:59;;;;;;;16.48;6.57;;;11.90;99.90;;;;;;5066337;28;20032;-90
2023/03/19 07:04:25;;;;;;;13.07;5.38;;;12.00;99.90;;;;;;5067866;28;20373;-87
2023/03/19 07:06:51;;;;;;;11.50;4.82;;;12.10;99.90;;;;;;5061429;28;20131;-89
2023/03/19 07:09:16;;;;;;;13.15;5.65;;;12.20;99.90;;;;;;5066977;28;20099;-83
2023/03/19 07:11:42;;;;;;;12.95;5.97;;;12.20;99.90;;;;;;5081261;28;20103;-90
2023/03/19 07:14:08;;;;;;;13.48;5.63;;;12.20;99.90;;;;;;5068981;28;20047;-89
2023/03/19 07:16:33;;;;;;;11.73;5.18;;;12.30;99.90;;;;;;5072597;28;20020;-82
2023/03/19 07:18:59;;;;;;;8.52;4.75;;;12.30;99.90;;;;;;5077746;28;20496;-89
2023/03/19 07:21:25;;;;;;;13.55;4.72;;;12.30;99.90;;;;;;5066383;28;20048;-89
2023/03/19 07:23:50;;;;;;;13.68;5.07;;;12.30;99.90;;;;;;5068212;28;20089;-88
2023/03/19 07:26:16;;;;;;;17.25;5.07;;;12.30;99.90;;;;;;5069218;28;20024;-86
2023/03/19 07:28:42;;;;;;;15.45;5.15;;;12.30;99.90;;;;;;5069951;28;20098;-86
2023/03/19 07:31:08;;;;;;;11.88;4.75;;;12.40;99.90;;;;;;5073709;28;20020;-88
2023/03/19 07:33:34;;;;;;;10.73;4.90;;;12.40;99.90;;;;;;5069155;28;20025;-86
2023/03/19 07:35:59;;;;;;;13.80;5.22;;;12.40;99.90;;;;;;5060858;28;20025;-89
2023/03/19 07:38:25;;;;;;;14.65;5.65;;;12.50;99.90;;;;;;5060716;28;20464;-89
2023/03/19 07:40:51;;;;;;;13.35;5.00;;;12.50;99.90;;;;;;5066586;28;20024;-87
2023/03/19 07:43:17;;;;;;;11.75;5.57;;;12.60;99.90;;;;;;5063408;28;20036;-88
2023/03/19 07:45:43;;;;;;;11.68;4.60;;;12.70;99.90;;;;;;5075036;28;20033;-89
2023/03/19 07:48:09;;;;;;;15.32;4.57;;;12.70;99.90;;;;;;5068878;28;20374;-90
2023/03/19 07:50:35;;;;;;;12.60;4.43;;;12.80;99.90;;;;;;5065728;28;20457;-89
2023/03/19 07:53:01;;;;;;;12.05;4.22;;;12.80;99.90;;;;;;5061710;28;20051;-90
2023/03/19 07:55:26;;;;;;;9.32;4.28;;;12.90;99.90;;;;;;5069958;28;20116;-88
2023/03/19 07:57:52;;;;;;;9.32;4.10;;;13.00;99.90;;;;;;5065730;28;20025;-86
2023/03/19 08:00:18;;;;;;;14.48;5.15;;;13.00;99.90;;;;;;5073937;28;20036;-85
2023/03/19 08:02:43;;;;;;;13.45;4.55;;;13.10;99.90;;;;;;5076958;28;20418;-89
2023/03/19 08:05:09;;;;;;;10.52;3.60;;;13.10;99.90;;;;;;5073278;28;20040;-87
2023/03/19 08:07:36;;;;;;;14.30;4.82;;;13.20;99.90;;;;;;5062500;28;20466;-89
2023/03/19 08:10:02;;;;;;;10.70;4.03;;;13.20;99.90;;;;;;5062553;28;20077;-90
2023/03/19 08:12:28;;;;;;;12.60;3.60;;;13.40;99.90;;;;;;5064153;28;20040;-89
2023/03/19 08:14:53;;;;;;;11.65;4.18;;;13.50;99.90;;;;;;5064142;28;20028;-88
2023/03/19 08:17:19;;;;;;;6.00;2.95;;;13.50;99.90;;;;;;5077160;28;20074;-88
2023/03/19 08:19:45;;;;;;;11.95;3.72;;;13.60;99.90;;;;;;5064974;28;20036;-88
2023/03/19 08:22:11;;;;;;;11.02;3.53;;;13.60;99.90;;;;;;5057844;28;20028;-91
2023/03/19 08:24:37;;;;;;;14.98;3.85;;;13.70;99.90;;;;;;5058827;28;20016;-89
2023/03/19 08:27:02;;;;;;;9.80;3.78;;;13.90;99.90;;;;;;5066920;28;20496;-89
2023/03/19 08:29:28;;;;;;;14.40;3.20;;;13.90;99.90;;;;;;5064885;28;20013;-90
2023/03/19 08:31:55;;;;;;;9.20;2.95;;;14.10;99.90;;;;;;5070648;28;20361;-90
2023/03/19 08:34:21;;;;;;;7.13;3.40;;;14.30;99.90;;;;;;5074439;28;20504;-82
2023/03/19 08:36:48;;;;;;;12.63;4.32;;;14.30;99.90;;;;;;5059587;28;20049;-89
2023/03/19 08:39:16;;;;;;;12.57;3.20;;;14.30;99.90;;;;;;5063711;28;20447;-89
2023/03/19 08:41:41;;;;;;;17.13;3.55;;;14.40;99.90;;;;;;5069546;28;20048;-81
2023/03/19 08:44:07;;;;;;;15.77;5.75;;;14.40;99.90;;;;;;5072022;28;20109;-91
2023/03/19 08:46:32;;;;;;;16.52;3.85;;;14.40;99.90;;;;;;5064158;28;20434;-90
2023/03/19 08:48:59;;;;;;;9.07;3.20;;;14.40;99.90;;;;;;5067135;28;20458;-87
2023/03/19 08:51:26;;;;;;;6.38;2.78;;;14.30;99.90;;;;;;5066581;28;20125;-90
2023/03/19 08:53:52;;;;;;;10.13;4.25;;;14.30;99.90;;;;;;5076943;28;20028;-89
2023/03/19 08:56:18;;;;;;;13.80;4.00;;;14.30;99.90;;;;;;5065907;28;20024;-90
2023/03/19 08:58:44;;;;;;;8.45;3.38;;;14.30;99.90;;;;;;5078242;28;20393;-89
2023/03/19 09:01:11;;;;;;;9.60;3.63;;;14.30;99.90;;;;;;5073189;28;20024;-91
2023/03/19 09:03:38;;;;;;;9.57;3.05;;;14.20;99.90;;;;;;5073606;28;20020;-87
2023/03/19 09:06:06;;;;;;;6.00;3.30;;;14.20;99.90;;;;;;5062903;28;20115;-89
2023/03/19 09:08:32;;;;;;;7.10;2.80;;;14.20;99.90;;;;;;5066221;28;20281;-86
2023/03/19 09:10:58;;;;;;;11.70;3.45;;;14.20;99.90;;;;;;5070284;28;20378;-88
2023/03/19 09:13:24;;;;;;;13.00;3.85;;;14.20;99.90;;;;;;5069831;28;20106;-88
2023/03/19 09:15:50;;;;;;;6.68;3.05;;;14.20;99.90;;;;;;5073688;28;20036;-89
2023/03/19 09:18:19;;;;;;;10.45;3.42;;;14.30;99.90;;;;;;5073260;28;20391;-88
2023/03/19 09:20:46;;;;;;;7.07;2.67;;;14.30;99.90;;;;;;5071038;28;20023;-87
2023/03/19 09:23:13;;;;;;;11.45;3.67;;;14.30;99.90;;;;;;5067026;28;20074;-89
2023/03/19 09:25:38;;;;;;;8.25;2.88;;;14.30;99.90;;;;;;5061335;28;20058;-90
2023/03/19 09:28:04;;;;;;;12.35;4.07;;;14.30;99.90;;;;;;5066498;28;20044;-87
2023/03/19 09:30:30;;;;;;;9.10;3.42;;;14.20;99.90;;;;;;5066813;28;20376;-86
2023/03/19 09:32:56;;;;;;;9.57;3.53;;;14.20;99.90;;;;;;5071043;28;20107;-88
2023/03/19 09:35:22;;;;;;;11.00;3.65;;;14.20;99.90;;;;;;5082310;28;20109;-87
2023/03/19 09:37:47;;;;;;;8.30;3.58;;;14.10;99.90;;;;;;5077512;28;20051;-89
2023/03/19 09:40:23;;;;;;;8.48;3.20;;;14.10;99.90;;;;;;5074820;28;20044;-89
2023/03/19 09:42:59;;;;;;;6.10;3.03;;;14.00;99.90;;;;;;5055378;28;20044;-88
2023/03/19 09:45:28;;;;;;;12.18;4.05;;;14.10;99.90;;;;;;5070283;28;20020;-87
2023/03/19 09:47:59;;;;;;;7.15;2.75;;;14.10;99.90;;;;;;5064773;28;20098;-89
2023/03/19 09:50:31;;;;;;;7.97;3.20;;;14.10;99.90;;;;;;5075444;28;20103;-89
2023/03/19 09:53:14;;;;;;;11.35;2.80;;;14.10;99.90;;;;;;5074530;28;20025;-89
2023/03/19 09:55:44;;;;;;;7.22;2.60;;;14.10;99.90;;;;;;5069781;28;20028;-88
2023/03/19 09:58:19;;;;;;;11.40;3.65;;;14.10;99.90;;;;;;5077084;28;20016;-87
2023/03/19 10:00:50;;;;;;;9.40;3.72;;;14.10;99.90;;;;;;5082075;28;20036;-88
2023/03/19 10:03:37;;;;;;;13.63;4.28;;;14.00;99.90;;;;;;5067388;28;20024;-89
2023/03/19 10:06:36;;;;;;;7.53;3.03;;;14.00;99.90;;;;;;5081217;28;20044;-89
2023/03/19 10:09:10;;;;;;;9.73;3.30;;;14.00;99.90;;;;;;5074009;28;20063;-89
2023/03/19 10:11:55;;;;;;;10.35;4.30;;;13.90;99.90;;;;;;5068727;28;20432;-89
2023/03/19 10:14:59;;;;;;;8.93;3.40;;;13.80;99.90;;;;;;5072978;28;20066;-88
2023/03/19 10:17:29;;;;;;;4.65;2.75;;;13.80;99.90;;;;;;5067192;28;20013;-87
2023/03/19 10:20:09;;;;;;;12.88;3.90;;;13.80;99.90;;;;;;5070449;28;20038;-88
2023/03/19 10:22:45;;;;;;;8.85;3.35;;;13.80;99.90;;;;;;5063899;28;20032;-88
2023/03/19 10:25:17;;;;;;;4.47;2.28;;;13.80;99.90;;;;;;5072912;28;20028;-87
2023/03/19 10:27:45;;;;;;;9.90;3.45;;;13.70;99.90;;;;;;5059752;28;20442;-88
2023/03/19 10:30:17;;;;;;;5.68;3.28;;;13.70;99.90;;;;;;5064905;28;20017;-88
2023/03/19 10:33:02;;;;;;;8.43;3.38;;;13.70;99.90;;;;;;5062468;28;20036;-87
2023/03/19 10:35:42;;;;;;;5.43;2.55;;;13.70;99.90;;;;;;5059342;28;20267;-88
2023/03/19 10:38:23;;;;;;;10.20;3.20;;;13.70;99.90;;;;;;5068841;28;20113;-88
2023/03/19 10:41:26;;;;;;;5.97;2.35;;;13.70;99.90;;;;;;5074943;28;20039;-89
2023/03/19 10:44:00;;;;;;;5.57;2.67;;;13.70;99.90;;;;;;5061715;28;20390;-88
2023/03/19 10:46:26;;;;;;;7.97;2.97;;;13.70;99.90;;;;;;5078368;28;20021;-89
2023/03/19 10:48:51;;;;;;;12.90;3.15;;;13.80;99.90;;;;;;5071972;28;20058;-89
2023/03/19 10:51:25;;;;;;;7.38;2.85;;;13.90;99.90;;;;;;5056733;28;20021;-88
2023/03/19 10:53:55;;;;;;;5.75;2.90;;;14.00;99.90;;;;;;5057420;28;20016;-87
2023/03/19 10:56:25;;;;;;;10.18;3.65;;;14.00;99.90;;;;;;5064334;28;20040;-88
2023/03/19 10:59:04;;;;;;;6.72;2.30;;;14.10;99.90;;;;;;5060162;28;20032;-87
2023/03/19 11:01:38;;;;;;;13.18;3.63;;;14.10;99.90;;;;;;5054587;28;20028;-88
2023/03/19 11:04:19;;;;;;;5.03;2.03;;;14.10;99.90;;;;;;5064827;28;20521;-88
2023/03/19 11:06:53;;;;;;;10.90;3.10;;;14.10;99.90;;;;;;5055524;28;20843;-88
2023/03/19 11:09:40;;;;;;;9.68;2.78;;;14.10;99.90;;;;;;5059216;28;20560;-87
2023/03/19 11:12:30;;;;;;;7.78;3.65;;;14.10;99.90;;;;;;5070980;28;20028;-88
2023/03/19 11:14:57;;;;;;;7.82;3.13;;;14.10;99.90;;;;;;5063083;28;20048;-88
2023/03/19 11:17:41;;;;;;;5.40;2.80;;;14.10;99.90;;;;;;5067754;28;20027;-87
2023/03/19 11:20:19;;;;;;;9.88;3.40;;;14.10;99.90;;;;;;5067703;28;20490;-87
2023/03/19 11:22:46;;;;;;;15.10;3.78;;;14.10;99.90;;;;;;5053284;28;20083;-88
2023/03/19 11:25:35;;;;;;;16.20;3.67;;;14.10;99.90;;;;;;5053403;28;20060;-88
2023/03/19 11:28:05;;;;;;;6.40;3.05;;;14.10;99.90;;;;;;5071764;28;20024;-87
2023/03/19 11:31:00;;;;;;;5.75;2.60;;;14.20;99.90;;;;;;5066161;28;20029;-91
2023/03/19 11:33:49;;;;;;;8.63;3.72;;;14.20;99.90;;;;;;5057757;28;20041;-88
2023/03/19 11:36:51;;;;;;;8.18;4.35;;;14.20;99.90;;;;;;5062627;28;20032;-90
2023/03/19 11:39:33;;;;;;;10.32;4.45;;;14.30;99.90;;;;;;5071386;28;20047;-88
2023/03/19 11:42:36;;;;;;;7.63;3.22;;;14.30;99.90;;;;;;5065136;28;20037;-88
2023/03/19 11:45:11;;;;;;;15.55;4.97;;;14.30;99.90;;;;;;5075198;28;20028;-89
2023/03/19 11:48:04;;;;;;;14.50;6.13;;;14.40;99.90;;;;;;5076837;28;20025;-89
2023/03/19 11:50:35;;;;;;;11.45;5.03;;;14.40;99.90;;;;;;5071070;28;20082;-87
2023/03/19 11:53:06;;;;;;;9.95;3.75;;;14.40;99.90;;;;;;5063898;28;21243;-88
2023/03/19 11:55:52;;;;;;;8.13;3.30;;;14.50;99.90;;;;;;5069265;28;20028;-89
2023/03/19 11:58:41;;;;;;;;;;;14.50;99.90;;;;;;5065453;28;20090;-89
2023/03/19 12:01:48;;;;;;;10.40;2.90;;;14.60;99.90;;;;;;5063918;28;20338;-88
2023/03/19 12:04:37;;;;;;;7.65;3.00;;;14.70;99.90;;;;;;5071552;28;20043;-86
2023/03/19 12:07:26;;;;;;;6.20;3.25;;;14.90;99.90;;;;;;5066549;28;20210;-88
2023/03/19 12:10:29;;;;;;;7.05;3.30;;;15.10;99.90;;;;;;5059164;28;20436;-85
2023/03/19 12:13:01;;;;;;;9.60;3.17;;;15.30;99.90;;;;;;5056150;28;20040;-89
2023/03/19 12:15:35;;;;;;;7.55;3.03;;;15.30;99.90;;;;;;5065383;28;20027;-92
2023/03/19 12:18:00;;;;;;;9.73;3.45;;;15.30;99.90;;;;;;5074873;28;20104;-88
2023/03/19 12:20:42;;;;;;;9.43;3.65;;;15.40;99.90;;;;;;5073746;28;20497;-91
2023/03/19 12:23:25;;;;;;;6.40;3.08;;;15.40;99.90;;;;;;5064070;28;20109;-87
2023/03/19 12:26:07;;;;;;;9.18;3.20;;;15.40;99.90;;;;;;5065202;28;20052;-87
2023/03/19 12:28:51;;;;;;;10.73;3.17;;;15.30;99.90;;;;;;5071709;28;20020;-88
2023/03/19 12:31:32;;;;;;;6.80;3.08;;;15.30;99.90;;;;;;5068581;28;20025;-86
2023/03/19 12:34:22;;;;;;;8.20;3.10;;;15.30;99.90;;;;;;5064452;28;20029;-91
2023/03/19 12:37:09;;;;;;;10.98;3.85;;;15.30;99.90;;;;;;5063144;28;20024;-90
2023/03/19 12:39:44;;;;;;;11.27;3.80;;;15.40;99.90;;;;;;5078661;28;20051;-91
2023/03/19 12:42:15;;;;;;;16.65;4.80;;;15.30;99.90;;;;;;5074196;28;20102;-86
2023/03/19 12:44:47;;;;;;;5.72;3.63;;;15.40;99.90;;;;;;5075464;28;20069;-88
2023/03/19 12:47:19;;;;;;;7.85;3.65;;;15.40;99.90;;;;;;5063204;28;20116;-88
2023/03/19 12:50:10;;;;;;;9.55;4.03;;;15.30;99.90;;;;;;5087819;28;20021;-87
2023/03/19 12:52:41;;;;;;;7.50;3.67;;;15.30;99.90;;;;;;5067609;28;20517;-89
2023/03/19 12:55:21;;;;;;;9.68;3.65;;;15.30;99.90;;;;;;5081308;28;20028;-92
2023/03/19 12:57:56;;;;;;;7.18;3.95;;;15.20;99.90;;;;;;5066477;28;20445;-90